LBG weather

Paris-Le Bourget Airport
Paris, Île-de-France, France

Public forecast

Using degrees Celsius for public forecast. Weather courtesy of forecast.io.

Current aviation weather report (METAR) for Paris-Le Bourget Airport

Retrieved 2019/10/13 23:30 UTC (52 seconds ago):

LFPB 132330Z AUTO 04003KT 9999 SCT021 14/12 Q1013 NOSIG

Aviation forecast (TAF) for Paris-Le Bourget Airport

Retrieved 2019/10/13 18:21 UTC (5 hours ago):

TAF LFPB 131700Z 1318/1418 21010KT 9999 FEW040 TX22/1415Z TN12/1405Z BECMG 1322/1324 07005KT PROB30 TEMPO 1404/1408 3000 BR